sensor_id;sensor_type;location;lat;lon;timestamp;P1;durP1;ratioP1;P2;durP2;ratioP2
30337;SDS011;17143;51.888;5.408;2022-08-21T00:12:00;11.10;;;3.70;;
30337;SDS011;17143;51.888;5.408;2022-08-21T00:27:02;7.03;;;3.90;;
30337;SDS011;17143;51.888;5.408;2022-08-21T00:42:04;10.67;;;3.77;;
30337;SDS011;17143;51.888;5.408;2022-08-21T00:57:07;7.13;;;3.60;;
30337;SDS011;17143;51.888;5.408;2022-08-21T01:12:14;9.53;;;3.83;;
30337;SDS011;17143;51.888;5.408;2022-08-21T01:27:17;6.27;;;4.00;;
30337;SDS011;17143;51.888;5.408;2022-08-21T01:42:19;7.70;;;3.40;;
30337;SDS011;17143;51.888;5.408;2022-08-21T01:57:21;5.37;;;3.63;;
30337;SDS011;17143;51.888;5.408;2022-08-21T02:12:23;8.43;;;4.03;;
30337;SDS011;17143;51.888;5.408;2022-08-21T02:27:25;5.77;;;3.30;;
30337;SDS011;17143;51.888;5.408;2022-08-21T02:42:27;6.57;;;4.30;;
30337;SDS011;17143;51.888;5.408;2022-08-21T02:57:29;8.57;;;4.33;;
30337;SDS011;17143;51.888;5.408;2022-08-21T03:12:31;9.07;;;4.20;;
30337;SDS011;17143;51.888;5.408;2022-08-21T03:27:33;6.47;;;4.73;;
30337;SDS011;17143;51.888;5.408;2022-08-21T03:42:36;8.80;;;4.77;;
30337;SDS011;17143;51.888;5.408;2022-08-21T03:57:38;6.97;;;4.03;;
30337;SDS011;17143;51.888;5.408;2022-08-21T04:12:40;7.70;;;4.00;;
30337;SDS011;17143;51.888;5.408;2022-08-21T04:27:43;8.30;;;3.90;;
30337;SDS011;17143;51.888;5.408;2022-08-21T04:42:45;9.40;;;4.87;;
30337;SDS011;17143;51.888;5.408;2022-08-21T04:57:49;8.57;;;5.00;;
30337;SDS011;17143;51.888;5.408;2022-08-21T05:12:51;11.73;;;5.10;;
30337;SDS011;17143;51.888;5.408;2022-08-21T05:27:53;9.93;;;5.30;;
30337;SDS011;17143;51.888;5.408;2022-08-21T05:42:56;15.27;;;5.77;;
30337;SDS011;17143;51.888;5.408;2022-08-21T05:57:58;10.73;;;4.50;;
30337;SDS011;17143;51.888;5.408;2022-08-21T06:13:00;8.27;;;4.40;;
30337;SDS011;17143;51.888;5.408;2022-08-21T06:28:03;10.97;;;3.67;;
30337;SDS011;17143;51.888;5.408;2022-08-21T06:43:07;9.20;;;4.10;;
30337;SDS011;17143;51.888;5.408;2022-08-21T06:58:10;10.50;;;4.53;;
30337;SDS011;17143;51.888;5.408;2022-08-21T07:13:12;8.70;;;4.30;;
30337;SDS011;17143;51.888;5.408;2022-08-21T07:28:15;11.70;;;3.50;;
30337;SDS011;17143;51.888;5.408;2022-08-21T07:43:17;10.37;;;3.40;;
30337;SDS011;17143;51.888;5.408;2022-08-21T07:58:19;9.67;;;3.17;;
30337;SDS011;17143;51.888;5.408;2022-08-21T08:13:21;11.63;;;3.40;;
30337;SDS011;17143;51.888;5.408;2022-08-21T08:28:23;8.27;;;2.80;;
30337;SDS011;17143;51.888;5.408;2022-08-21T08:43:25;10.03;;;2.87;;
30337;SDS011;17143;51.888;5.408;2022-08-21T08:58:29;11.83;;;2.60;;
30337;SDS011;17143;51.888;5.408;2022-08-21T09:13:37;6.10;;;2.23;;
30337;SDS011;17143;51.888;5.408;2022-08-21T09:28:49;12.90;;;2.90;;
30337;SDS011;17143;51.888;5.408;2022-08-21T09:43:54;8.87;;;2.60;;
30337;SDS011;17143;51.888;5.408;2022-08-21T09:58:56;8.93;;;2.20;;
30337;SDS011;17143;51.888;5.408;2022-08-21T10:13:59;6.17;;;1.70;;
30337;SDS011;17143;51.888;5.408;2022-08-21T10:29:09;7.13;;;2.07;;
30337;SDS011;17143;51.888;5.408;2022-08-21T10:44:32;8.10;;;2.00;;
30337;SDS011;17143;51.888;5.408;2022-08-21T10:59:40;9.37;;;1.87;;
30337;SDS011;17143;51.888;5.408;2022-08-21T11:14:48;7.60;;;1.57;;
30337;SDS011;17143;51.888;5.408;2022-08-21T11:29:56;7.03;;;1.53;;
30337;SDS011;17143;51.888;5.408;2022-08-21T11:45:03;8.00;;;1.60;;
30337;SDS011;17143;51.888;5.408;2022-08-21T12:00:16;4.07;;;1.17;;
30337;SDS011;17143;51.888;5.408;2022-08-21T12:15:26;6.07;;;1.50;;
30337;SDS011;17143;51.888;5.408;2022-08-21T12:30:34;4.80;;;1.17;;
30337;SDS011;17143;51.888;5.408;2022-08-21T12:45:40;4.27;;;1.03;;
30337;SDS011;17143;51.888;5.408;2022-08-21T13:00:45;4.37;;;1.10;;
30337;SDS011;17143;51.888;5.408;2022-08-21T13:15:55;4.57;;;1.10;;
30337;SDS011;17143;51.888;5.408;2022-08-21T13:30:59;4.60;;;1.27;;
30337;SDS011;17143;51.888;5.408;2022-08-21T13:46:02;6.70;;;1.17;;
30337;SDS011;17143;51.888;5.408;2022-08-21T14:01:18;2.40;;;0.90;;
30337;SDS011;17143;51.888;5.408;2022-08-21T14:16:22;3.87;;;1.40;;
30337;SDS011;17143;51.888;5.408;2022-08-21T14:31:28;3.17;;;1.17;;
30337;SDS011;17143;51.888;5.408;2022-08-21T14:46:32;4.47;;;1.30;;
30337;SDS011;17143;51.888;5.408;2022-08-21T15:01:35;5.93;;;1.60;;
30337;SDS011;17143;51.888;5.408;2022-08-21T15:16:38;2.87;;;1.40;;
30337;SDS011;17143;51.888;5.408;2022-08-21T15:31:50;5.83;;;1.70;;
30337;SDS011;17143;51.888;5.408;2022-08-21T15:46:54;6.13;;;1.37;;
30337;SDS011;17143;51.888;5.408;2022-08-21T16:01:57;5.30;;;1.67;;
30337;SDS011;17143;51.888;5.408;2022-08-21T16:16:59;4.67;;;1.60;;
30337;SDS011;17143;51.888;5.408;2022-08-21T16:32:01;5.80;;;1.43;;
30337;SDS011;17143;51.888;5.408;2022-08-21T16:47:04;5.80;;;1.50;;
30337;SDS011;17143;51.888;5.408;2022-08-21T17:02:06;5.80;;;1.50;;
30337;SDS011;17143;51.888;5.408;2022-08-21T17:17:20;3.70;;;1.40;;
30337;SDS011;17143;51.888;5.408;2022-08-21T17:32:22;4.47;;;1.20;;
30337;SDS011;17143;51.888;5.408;2022-08-21T17:47:24;4.07;;;1.13;;
30337;SDS011;17143;51.888;5.408;2022-08-21T18:02:27;3.77;;;1.30;;
30337;SDS011;17143;51.888;5.408;2022-08-21T18:17:29;4.03;;;1.37;;
30337;SDS011;17143;51.888;5.408;2022-08-21T18:32:31;5.97;;;1.33;;
30337;SDS011;17143;51.888;5.408;2022-08-21T18:47:34;4.00;;;1.67;;
30337;SDS011;17143;51.888;5.408;2022-08-21T19:02:40;6.60;;;1.60;;
30337;SDS011;17143;51.888;5.408;2022-08-21T19:17:43;7.03;;;1.80;;
30337;SDS011;17143;51.888;5.408;2022-08-21T19:32:46;5.50;;;1.43;;
30337;SDS011;17143;51.888;5.408;2022-08-21T19:47:49;4.97;;;1.67;;
30337;SDS011;17143;51.888;5.408;2022-08-21T20:02:52;10.83;;;2.47;;
30337;SDS011;17143;51.888;5.408;2022-08-21T20:17:54;9.73;;;2.20;;
30337;SDS011;17143;51.888;5.408;2022-08-21T20:32:56;6.17;;;2.03;;
30337;SDS011;17143;51.888;5.408;2022-08-21T20:48:00;6.03;;;1.70;;
30337;SDS011;17143;51.888;5.408;2022-08-21T21:03:06;6.90;;;2.37;;
30337;SDS011;17143;51.888;5.408;2022-08-21T21:18:13;5.60;;;2.10;;
30337;SDS011;17143;51.888;5.408;2022-08-21T21:33:22;5.53;;;2.20;;
30337;SDS011;17143;51.888;5.408;2022-08-21T21:48:26;8.10;;;2.73;;
30337;SDS011;17143;51.888;5.408;2022-08-21T22:03:37;7.90;;;2.50;;
30337;SDS011;17143;51.888;5.408;2022-08-21T22:18:48;5.80;;;2.60;;
30337;SDS011;17143;51.888;5.408;2022-08-21T22:34:02;9.10;;;2.97;;
30337;SDS011;17143;51.888;5.408;2022-08-21T22:49:08;6.03;;;2.37;;
30337;SDS011;17143;51.888;5.408;2022-08-21T23:04:19;7.20;;;2.80;;
30337;SDS011;17143;51.888;5.408;2022-08-21T23:19:30;6.90;;;2.50;;
30337;SDS011;17143;51.888;5.408;2022-08-21T23:34:44;4.80;;;2.50;;
30337;SDS011;17143;51.888;5.408;2022-08-21T23:49:57;6.73;;;2.30;;
